TimeEDT,TemperatureF,Dew PointF,Humidity,Sea Level PressureIn,VisibilityMPH,Wind Direction,Wind SpeedMPH,Gust SpeedMPH,PrecipitationIn,Events,Conditions,WindDirDegrees,DateUTC
12:15 AM,69.8,59.0,68,30.24,10.0,South,6.9,-,N/A,,Clear,180,2013-05-30 04:15:00
12:35 AM,69.8,59.0,68,30.24,10.0,South,9.2,16.1,N/A,,Clear,180,2013-05-30 04:35:00
12:55 AM,69.8,59.0,68,30.24,10.0,South,10.4,-,N/A,,Clear,170,2013-05-30 04:55:00
1:15 AM,69.8,59.0,68,30.24,10.0,South,12.7,24.2,N/A,,Clear,170,2013-05-30 05:15:00
1:35 AM,68.0,59.0,73,30.24,10.0,South,12.7,18.4,N/A,,Clear,180,2013-05-30 05:35:00
1:55 AM,68.0,59.0,73,30.24,10.0,South,13.8,20.7,N/A,,Clear,170,2013-05-30 05:55:00
2:15 AM,68.0,59.0,73,30.25,10.0,South,11.5,-,N/A,,Clear,180,2013-05-30 06:15:00
2:35 AM,68.0,59.0,73,30.24,10.0,South,10.4,17.3,N/A,,Clear,170,2013-05-30 06:35:00
2:55 AM,68.0,57.2,68,30.24,10.0,South,8.1,-,N/A,,Clear,180,2013-05-30 06:55:00
3:15 AM,64.4,57.2,77,30.25,10.0,West,3.5,-,N/A,,Clear,270,2013-05-30 07:15:00
3:35 AM,62.6,57.2,82,30.25,10.0,Calm,Calm,-,N/A,,Clear,0,2013-05-30 07:35:00
3:55 AM,62.6,57.2,82,30.26,10.0,Calm,Calm,-,N/A,,Clear,0,2013-05-30 07:55:00
4:15 AM,62.6,57.2,82,30.26,10.0,Calm,Calm,-,N/A,,Clear,0,2013-05-30 08:15:00
4:35 AM,60.8,55.4,82,30.27,10.0,SW,5.8,-,N/A,,Clear,220,2013-05-30 08:35:00
4:55 AM,62.6,55.4,77,30.27,10.0,South,3.5,-,N/A,,Clear,190,2013-05-30 08:55:00
5:15 AM,62.6,57.2,82,30.28,10.0,Calm,Calm,-,N/A,,Clear,0,2013-05-30 09:15:00
5:35 AM,62.6,57.2,82,30.28,10.0,South,4.6,-,N/A,,Clear,180,2013-05-30 09:35:00
5:55 AM,60.8,57.2,88,30.29,10.0,South,6.9,-,N/A,,Clear,180,2013-05-30 09:55:00
6:15 AM,62.6,57.2,82,30.29,10.0,South,4.6,-,N/A,,Clear,190,2013-05-30 10:15:00
6:35 AM,62.6,57.2,82,30.30,10.0,South,4.6,-,N/A,,Clear,180,2013-05-30 10:35:00
6:55 AM,62.6,57.2,82,30.30,10.0,South,5.8,-,N/A,,Clear,180,2013-05-30 10:55:00
7:15 AM,64.4,57.2,77,30.30,10.0,South,4.6,-,N/A,,Clear,190,2013-05-30 11:15:00
7:35 AM,64.4,59.0,83,30.30,10.0,South,3.5,-,N/A,,Clear,180,2013-05-30 11:35:00
7:55 AM,68.0,59.0,73,30.31,10.0,South,4.6,-,N/A,,Clear,190,2013-05-30 11:55:00
8:15 AM,69.8,59.0,68,30.31,10.0,South,5.8,-,N/A,,Clear,170,2013-05-30 12:15:00
8:35 AM,69.8,59.0,68,30.31,10.0,South,5.8,-,N/A,,Clear,170,2013-05-30 12:35:00
8:55 AM,69.8,59.0,68,30.32,10.0,South,6.9,-,N/A,,Clear,170,2013-05-30 12:55:00
9:15 AM,71.6,60.8,69,30.33,10.0,South,4.6,-,N/A,,Clear,190,2013-05-30 13:15:00
9:35 AM,71.6,60.8,69,30.33,10.0,SSW,4.6,-,N/A,,Clear,200,2013-05-30 13:35:00
9:55 AM,73.4,60.8,65,30.33,10.0,South,5.8,-,N/A,,Clear,190,2013-05-30 13:55:00
10:15 AM,73.4,60.8,65,30.33,10.0,SSW,4.6,-,N/A,,Clear,200,2013-05-30 14:15:00
10:35 AM,73.4,60.8,65,30.33,10.0,Calm,Calm,-,N/A,,Clear,0,2013-05-30 14:35:00
10:55 AM,75.2,62.6,65,30.33,10.0,SE,3.5,-,N/A,,Clear,140,2013-05-30 14:55:00
11:15 AM,77.0,62.6,61,30.32,10.0,East,6.9,-,N/A,,Clear,100,2013-05-30 15:15:00
11:35 AM,77.0,62.6,61,30.32,10.0,ESE,5.8,-,N/A,,Clear,110,2013-05-30 15:35:00
11:55 AM,78.8,62.6,57,30.32,10.0,South,5.8,-,N/A,,Scattered Clouds,190,2013-05-30 15:55:00
12:15 PM,78.8,60.8,54,30.31,10.0,Calm,Calm,-,N/A,,Scattered Clouds,0,2013-05-30 16:15:00
12:35 PM,78.8,60.8,54,30.30,10.0,SE,8.1,-,N/A,,Mostly Cloudy,130,2013-05-30 16:35:00
12:55 PM,78.8,60.8,54,30.30,10.0,SSE,3.5,-,N/A,,Scattered Clouds,150,2013-05-30 16:55:00
1:15 PM,80.6,60.8,51,30.30,10.0,SE,4.6,-,N/A,,Scattered Clouds,140,2013-05-30 17:15:00
1:35 PM,80.6,59.0,48,30.29,10.0,ESE,5.8,-,N/A,,Scattered Clouds,120,2013-05-30 17:35:00
1:55 PM,80.6,57.2,45,30.29,10.0,ESE,3.5,-,N/A,,Clear,110,2013-05-30 17:55:00
2:15 PM,80.6,59.0,48,30.28,10.0,South,4.6,-,N/A,,Clear,170,2013-05-30 18:15:00
2:35 PM,80.6,57.2,45,30.28,10.0,East,6.9,-,N/A,,Clear,80,2013-05-30 18:35:00
2:55 PM,80.6,59.0,48,30.26,10.0,South,5.8,-,N/A,,Clear,170,2013-05-30 18:55:00
3:15 PM,80.6,59.0,48,30.26,10.0,ESE,9.2,-,N/A,,Clear,110,2013-05-30 19:15:00
3:35 PM,80.6,55.4,42,30.26,10.0,SE,4.6,-,N/A,,Clear,140,2013-05-30 19:35:00
3:55 PM,82.4,57.2,42,30.25,10.0,SSE,5.8,-,N/A,,Clear,160,2013-05-30 19:55:00
4:15 PM,82.4,55.4,39,30.24,10.0,SE,3.5,-,N/A,,Clear,140,2013-05-30 20:15:00
4:35 PM,82.4,55.4,39,30.24,10.0,SSE,8.1,-,N/A,,Clear,160,2013-05-30 20:35:00
4:55 PM,82.4,55.4,39,30.24,10.0,SSW,8.1,-,N/A,,Clear,200,2013-05-30 20:55:00
5:15 PM,82.4,55.4,39,30.23,10.0,SSE,3.5,-,N/A,,Clear,150,2013-05-30 21:15:00
5:35 PM,82.4,55.4,39,30.23,10.0,South,4.6,-,N/A,,Clear,170,2013-05-30 21:35:00
5:55 PM,80.6,55.4,42,30.22,10.0,SSE,4.6,-,N/A,,Clear,160,2013-05-30 21:55:00
6:15 PM,78.8,55.4,44,30.22,10.0,SSE,3.5,-,N/A,,Clear,160,2013-05-30 22:15:00
6:35 PM,78.8,57.2,47,30.22,10.0,South,3.5,-,N/A,,Clear,170,2013-05-30 22:35:00
6:55 PM,78.8,59.0,51,30.21,10.0,South,4.6,-,N/A,,Clear,180,2013-05-30 22:55:00
7:15 PM,77.0,59.0,54,30.21,10.0,South,3.5,-,N/A,,Clear,170,2013-05-30 23:15:00
7:35 PM,77.0,59.0,54,30.21,10.0,Calm,Calm,-,N/A,,Clear,0,2013-05-30 23:35:00
7:55 PM,75.2,59.0,57,30.21,10.0,Calm,Calm,-,N/A,,Clear,0,2013-05-30 23:55:00
8:15 PM,73.4,59.0,61,30.21,10.0,Calm,Calm,-,N/A,,Clear,0,2013-05-31 00:15:00
8:35 PM,71.6,59.0,64,30.21,10.0,South,3.5,-,N/A,,Scattered Clouds,190,2013-05-31 00:35:00
8:55 PM,71.6,59.0,64,30.22,10.0,South,4.6,-,N/A,,Mostly Cloudy,190,2013-05-31 00:55:00
9:15 PM,73.4,59.0,61,30.22,10.0,South,5.8,-,N/A,,Scattered Clouds,170,2013-05-31 01:15:00
9:35 PM,73.4,59.0,61,30.22,10.0,South,10.4,-,N/A,,Clear,170,2013-05-31 01:35:00
9:55 PM,71.6,59.0,64,30.23,10.0,South,6.9,-,N/A,,Clear,170,2013-05-31 01:55:00
10:15 PM,71.6,59.0,64,30.24,10.0,South,6.9,-,N/A,,Clear,170,2013-05-31 02:15:00
10:35 PM,71.6,57.2,60,30.24,10.0,South,9.2,-,N/A,,Clear,180,2013-05-31 02:35:00
10:55 PM,69.8,55.4,60,30.25,10.0,South,8.1,-,N/A,,Clear,170,2013-05-31 02:55:00
11:15 PM,69.8,55.4,60,30.26,10.0,South,8.1,-,N/A,,Clear,170,2013-05-31 03:15:00
11:35 PM,69.8,55.4,60,30.26,10.0,South,9.2,-,N/A,,Clear,170,2013-05-31 03:35:00
11:55 PM,69.8,57.2,64,30.26,10.0,SSE,8.1,16.1,N/A,,Clear,160,2013-05-31 03:55:00